Time;durP1;ratioP1;P1;durP2;ratioP2;P2;SDS_P1;SDS_P2;PMS_P1;PMS_P2;Temp;Humidity;BMP_temperature;BMP_pressure;BME280_temperature;BME280_humidity;BME280_pressure;Samples;Min_cycle;Max_cycle;Signal;HPM_P1;HPM_P2
2022/06/27 00:01:11;;;;;;;3.42;1.50;;;19.80;99.90;;;;;;4947878;28;20110;-68
2022/06/27 00:03:37;;;;;;;2.22;1.58;;;19.70;99.90;;;;;;4949560;28;20883;-69
2022/06/27 00:06:03;;;;;;;2.90;1.60;;;19.80;99.90;;;;;;4947240;28;20050;-68
2022/06/27 00:08:29;;;;;;;4.15;1.70;;;19.90;99.90;;;;;;4949193;28;20054;-68
2022/06/27 00:10:54;;;;;;;2.05;1.45;;;19.90;99.90;;;;;;4950445;28;20054;-68
2022/06/27 00:13:20;;;;;;;2.55;1.70;;;19.90;99.90;;;;;;4952122;28;20813;-70
2022/06/27 00:15:46;;;;;;;10.90;2.15;;;20.00;99.90;;;;;;4945606;28;20043;-70
2022/06/27 00:18:11;;;;;;;2.85;1.70;;;20.00;99.90;;;;;;4949360;28;21055;-71
2022/06/27 00:20:37;;;;;;;1.95;1.70;;;20.00;99.90;;;;;;4951247;28;20394;-71
2022/06/27 00:23:03;;;;;;;2.55;1.77;;;19.90;99.90;;;;;;4949954;28;20412;-71
2022/06/27 00:25:28;;;;;;;2.67;1.83;;;19.90;99.90;;;;;;4951711;28;20130;-71
2022/06/27 00:27:54;;;;;;;3.28;1.88;;;19.80;99.90;;;;;;4949743;28;20049;-71
2022/06/27 00:30:20;;;;;;;4.22;2.03;;;19.80;99.90;;;;;;4947496;28;20110;-71
2022/06/27 00:32:47;;;;;;;6.47;2.55;;;19.80;99.90;;;;;;4946308;28;20035;-68
2022/06/27 00:35:13;;;;;;;4.15;1.77;;;19.80;99.90;;;;;;4952227;28;20045;-68
2022/06/27 00:37:39;;;;;;;5.72;1.67;;;19.70;99.90;;;;;;4952984;28;20023;-68
2022/06/27 00:40:06;;;;;;;6.25;2.00;;;19.70;99.90;;;;;;4952542;28;20077;-68
2022/06/27 00:42:32;;;;;;;6.78;1.70;;;19.60;99.90;;;;;;4951008;28;20030;-68
2022/06/27 00:44:58;;;;;;;6.68;1.80;;;19.60;99.90;;;;;;4951424;28;20035;-68
2022/06/27 00:47:24;;;;;;;6.57;2.10;;;19.60;99.90;;;;;;4944835;28;20050;-68
2022/06/27 00:49:49;;;;;;;4.00;1.73;;;19.50;99.90;;;;;;4946349;28;20038;-68
2022/06/27 00:52:15;;;;;;;1.42;1.30;;;19.50;99.90;;;;;;4950697;28;20397;-71
2022/06/27 00:54:42;;;;;;;3.63;2.03;;;19.40;99.90;;;;;;4949926;28;20381;-71
2022/06/27 00:57:10;;;;;;;1.70;1.60;;;19.40;99.90;;;;;;4947875;28;20451;-71
2022/06/27 00:59:36;;;;;;;4.18;1.77;;;19.50;99.90;;;;;;4949626;28;20078;-71
2022/06/27 01:02:02;;;;;;;3.75;2.00;;;19.60;99.90;;;;;;4947331;28;20111;-71
2022/06/27 01:04:29;;;;;;;2.95;1.67;;;19.50;99.90;;;;;;4949125;28;20043;-71
2022/06/27 01:06:55;;;;;;;4.05;1.90;;;19.50;99.90;;;;;;4948457;28;20027;-70
2022/06/27 01:09:22;;;;;;;6.35;2.03;;;19.40;99.90;;;;;;4947669;28;20106;-70
2022/06/27 01:11:48;;;;;;;4.72;2.33;;;19.40;99.90;;;;;;4952227;28;20066;-68
2022/06/27 01:14:15;;;;;;;5.85;2.15;;;19.30;99.90;;;;;;4951395;28;20138;-68
2022/06/27 01:16:41;;;;;;;3.20;1.65;;;19.30;99.90;;;;;;4951755;28;20027;-68
2022/06/27 01:19:11;;;;;;;5.38;2.30;;;19.20;99.90;;;;;;4953045;28;20049;-68
2022/06/27 01:21:43;;;;;;;3.70;1.95;;;19.20;99.90;;;;;;4954537;28;20034;-68
2022/06/27 01:24:09;;;;;;;5.65;1.60;;;19.10;99.90;;;;;;4949981;28;20047;-68
2022/06/27 01:26:35;;;;;;;5.40;1.92;;;19.10;99.90;;;;;;4953033;28;20039;-68
2022/06/27 01:29:01;;;;;;;7.50;1.85;;;19.10;99.90;;;;;;4955014;28;20122;-70
2022/06/27 01:31:27;;;;;;;4.78;2.00;;;19.00;99.90;;;;;;4951181;28;20069;-70
2022/06/27 01:33:53;;;;;;;3.50;2.00;;;19.00;99.90;;;;;;4954700;28;20551;-70
2022/06/27 01:39:04;;;;;;;5.13;2.13;;;19.00;99.90;;;;;;4950361;28;20127;-70
2022/06/27 01:41:30;;;;;;;7.50;2.35;;;19.00;99.90;;;;;;4955045;28;20028;-70
2022/06/27 01:43:55;;;;;;;3.28;2.05;;;19.00;99.90;;;;;;4956465;28;20506;-71
2022/06/27 01:46:21;;;;;;;4.05;1.73;;;18.90;99.90;;;;;;4949788;28;20329;-70
2022/06/27 01:48:47;;;;;;;4.43;1.83;;;18.80;99.90;;;;;;4951475;28;20047;-68
2022/06/27 01:51:14;;;;;;;10.13;2.00;;;18.80;99.90;;;;;;4950171;28;20048;-68
2022/06/27 01:53:39;;;;;;;2.13;1.92;;;18.80;99.90;;;;;;4953437;28;20027;-68
2022/06/27 01:56:05;;;;;;;3.42;2.05;;;18.80;99.90;;;;;;4952307;28;20099;-68
2022/06/27 01:58:32;;;;;;;4.47;2.10;;;18.70;99.90;;;;;;4953192;28;20039;-68
2022/06/27 02:00:58;;;;;;;2.72;2.20;;;18.70;99.90;;;;;;4950022;28;20122;-68
2022/06/27 02:03:24;;;;;;;3.42;1.95;;;18.70;99.90;;;;;;4949457;28;20034;-68
2022/06/27 02:05:53;;;;;;;2.95;2.15;;;18.70;99.90;;;;;;4950344;28;20122;-68
2022/06/27 02:08:25;;;;;;;3.70;2.30;;;18.60;99.90;;;;;;4947723;28;20031;-68
2022/06/27 02:10:50;;;;;;;3.47;2.13;;;18.60;99.90;;;;;;4950732;28;20034;-68
2022/06/27 02:13:16;;;;;;;5.05;2.22;;;18.50;99.90;;;;;;4950632;28;20107;-68
2022/06/27 02:16:01;;;;;;;3.47;2.28;;;18.50;99.90;;;;;;4945126;28;20440;-68
2022/06/27 02:18:27;;;;;;;2.85;2.03;;;18.60;99.90;;;;;;4947266;28;20106;-68
2022/06/27 02:20:53;;;;;;;5.90;2.22;;;18.60;99.90;;;;;;4947333;28;20432;-68
2022/06/27 02:23:19;;;;;;;7.15;2.33;;;18.60;99.90;;;;;;4947718;28;20122;-68
2022/06/27 02:25:45;;;;;;;4.40;1.80;;;18.60;99.90;;;;;;4947293;28;20031;-68
2022/06/27 02:28:12;;;;;;;5.05;2.13;;;18.60;99.90;;;;;;4950320;28;20047;-70
2022/06/27 02:30:38;;;;;;;3.40;2.28;;;18.50;99.90;;;;;;4941888;28;20027;-70
2022/06/27 02:33:04;;;;;;;3.05;2.22;;;18.40;99.90;;;;;;4951437;28;20767;-70
2022/06/27 02:35:30;;;;;;;2.05;1.85;;;18.40;99.90;;;;;;4948098;28;20050;-70
2022/06/27 02:37:57;;;;;;;3.28;2.22;;;18.40;99.90;;;;;;4943921;28;20026;-70
2022/06/27 02:40:23;;;;;;;6.20;2.03;;;18.50;99.90;;;;;;4951166;28;20484;-70
2022/06/27 02:42:52;;;;;;;5.10;2.15;;;18.50;99.90;;;;;;4946899;28;20034;-70
2022/06/27 02:45:18;;;;;;;2.28;2.00;;;18.50;99.90;;;;;;4946018;28;21160;-68
2022/06/27 02:47:47;;;;;;;3.25;2.00;;;18.50;99.90;;;;;;4947683;28;20062;-68
2022/06/27 02:50:13;;;;;;;10.55;2.47;;;18.40;99.90;;;;;;4946988;28;20050;-68
2022/06/27 02:52:45;;;;;;;3.88;2.67;;;18.40;99.90;;;;;;4948564;28;20677;-68
2022/06/27 02:55:14;;;;;;;4.80;2.20;;;18.40;99.90;;;;;;4946949;28;20081;-68
2022/06/27 02:57:46;;;;;;;4.25;2.00;;;18.40;99.90;;;;;;4948315;28;20042;-68
2022/06/27 03:00:13;;;;;;;3.25;2.20;;;18.40;99.90;;;;;;4948182;28;20479;-68
2022/06/27 03:02:42;;;;;;;2.80;2.20;;;18.40;99.90;;;;;;4948081;28;20053;-68
2022/06/27 03:05:08;;;;;;;2.88;2.00;;;18.40;99.90;;;;;;4946662;28;20035;-70
2022/06/27 03:07:42;;;;;;;3.45;2.17;;;18.30;99.90;;;;;;4948412;28;20027;-70
2022/06/27 03:10:12;;;;;;;3.20;2.22;;;18.20;99.90;;;;;;4948592;28;20038;-71
2022/06/27 03:12:38;;;;;;;3.00;2.25;;;18.20;99.90;;;;;;4946551;28;20481;-70
2022/06/27 03:15:04;;;;;;;4.07;2.33;;;18.10;99.90;;;;;;4945068;28;20039;-70
2022/06/27 03:17:30;;;;;;;3.75;2.42;;;18.10;99.90;;;;;;4945024;28;20028;-70
2022/06/27 03:19:56;;;;;;;5.63;5.07;;;18.10;99.90;;;;;;4945316;28;20049;-70
2022/06/27 03:22:22;;;;;;;5.45;3.40;;;18.10;99.90;;;;;;4947186;28;20102;-70
2022/06/27 03:24:47;;;;;;;5.68;2.80;;;18.10;99.90;;;;;;4952252;28;20047;-68
2022/06/27 03:27:13;;;;;;;4.35;3.28;;;18.20;99.90;;;;;;4943510;28;20039;-68
2022/06/27 03:29:39;;;;;;;12.85;9.82;;;18.20;99.90;;;;;;4944514;28;20090;-68
2022/06/27 03:32:05;;;;;;;6.75;5.05;;;18.30;99.90;;;;;;4949901;28;20027;-68
2022/06/27 03:34:31;;;;;;;15.80;9.57;;;18.30;99.90;;;;;;4950730;28;20033;-68
2022/06/27 03:36:57;;;;;;;14.90;9.35;;;18.30;99.90;;;;;;4952913;28;20043;-68
2022/06/27 03:39:23;;;;;;;15.32;8.55;;;18.40;99.90;;;;;;4954969;28;20042;-68
2022/06/27 03:41:50;;;;;;;5.95;3.78;;;18.40;99.90;;;;;;4947700;28;20035;-68
2022/06/27 03:44:15;;;;;;;12.40;4.85;;;18.50;99.90;;;;;;4952926;28;20551;-68
2022/06/27 03:46:41;;;;;;;6.15;3.85;;;18.60;99.90;;;;;;4946275;28;20079;-68
2022/06/27 03:51:52;;;;;;;6.45;2.75;;;18.70;99.90;;;;;;4947242;28;20124;-67
2022/06/27 03:54:18;;;;;;;3.75;2.95;;;18.70;99.90;;;;;;4950577;28;20069;-67
2022/06/27 03:56:44;;;;;;;4.80;3.30;;;18.80;99.90;;;;;;4948454;28;20341;-67
2022/06/27 03:59:10;;;;;;;17.73;4.13;;;18.80;99.90;;;;;;4946431;28;20043;-67
2022/06/27 04:01:35;;;;;;;15.25;3.97;;;18.90;99.90;;;;;;4943032;28;20067;-71
2022/06/27 04:04:02;;;;;;;5.63;3.00;;;18.90;99.90;;;;;;4948629;28;20031;-70
2022/06/27 04:06:28;;;;;;;7.47;3.60;;;19.00;99.90;;;;;;4949177;28;20058;-71
2022/06/27 04:08:54;;;;;;;6.78;2.88;;;19.00;99.90;;;;;;4949840;28;20031;-70
2022/06/27 04:11:20;;;;;;;5.95;2.78;;;19.00;99.90;;;;;;4951306;28;20060;-70
2022/06/27 04:13:46;;;;;;;4.60;3.17;;;19.10;99.90;;;;;;4947298;28;20741;-71
2022/06/27 04:16:11;;;;;;;8.25;3.33;;;19.10;99.90;;;;;;4944245;28;20033;-70
2022/06/27 04:18:37;;;;;;;3.63;3.00;;;19.20;99.90;;;;;;4946698;28;20495;-70
2022/06/27 04:21:03;;;;;;;5.30;3.00;;;19.20;99.90;;;;;;4952534;28;20404;-72
2022/06/27 04:23:29;;;;;;;3.13;2.45;;;19.20;99.90;;;;;;4941741;28;20027;-70
2022/06/27 04:25:54;;;;;;;5.28;2.58;;;19.30;99.90;;;;;;4951069;28;20220;-69
2022/06/27 04:28:20;;;;;;;5.88;2.50;;;19.40;99.90;;;;;;4949338;28;20070;-70
2022/06/27 04:30:47;;;;;;;5.53;3.03;;;19.50;99.90;;;;;;4948046;28;20031;-70
2022/06/27 04:33:13;;;;;;;4.03;2.67;;;19.50;99.90;;;;;;4944682;28;20023;-70
2022/06/27 04:35:46;;;;;;;3.40;2.83;;;19.50;99.90;;;;;;4950172;28;20057;-70
2022/06/27 04:38:17;;;;;;;4.82;3.72;;;19.60;99.90;;;;;;4945190;28;20043;-70
2022/06/27 04:40:43;;;;;;;4.65;3.08;;;19.70;99.90;;;;;;4951107;28;20034;-67
2022/06/27 04:43:10;;;;;;;4.78;3.30;;;19.80;99.90;;;;;;4952073;28;20583;-67
2022/06/27 04:45:36;;;;;;;4.05;2.67;;;20.00;99.90;;;;;;4949417;28;20098;-67
2022/06/27 04:48:02;;;;;;;6.63;2.95;;;20.00;99.90;;;;;;4952466;28;20050;-67
2022/06/27 04:50:28;;;;;;;9.65;3.30;;;20.20;99.90;;;;;;4952113;28;20051;-67
2022/06/27 04:52:55;;;;;;;8.60;2.72;;;20.30;99.90;;;;;;4955138;28;20054;-67
2022/06/27 04:55:21;;;;;;;3.72;2.80;;;20.40;99.90;;;;;;4950590;28;23355;-66
2022/06/27 04:57:47;;;;;;;2.83;2.28;;;20.60;99.90;;;;;;4944868;28;20027;-67
2022/06/27 05:00:15;;;;;;;4.70;2.67;;;20.70;99.90;;;;;;4944600;28;20041;-66
2022/06/27 05:02:41;;;;;;;5.15;3.53;;;20.80;99.90;;;;;;4946587;28;20034;-66
2022/06/27 05:05:08;;;;;;;5.95;3.10;;;20.90;99.90;;;;;;4950918;28;20054;-67
2022/06/27 05:07:34;;;;;;;3.83;2.40;;;21.10;99.90;;;;;;4953464;28;20038;-67
2022/06/27 05:10:00;;;;;;;3.75;2.75;;;21.20;99.90;;;;;;4953404;28;20698;-68
2022/06/27 05:12:27;;;;;;;4.57;3.00;;;21.30;99.90;;;;;;4954900;28;20169;-68
2022/06/27 05:14:53;;;;;;;3.45;2.92;;;21.40;99.90;;;;;;4951705;28;20027;-68
2022/06/27 05:17:20;;;;;;;2.72;2.53;;;21.50;99.90;;;;;;4950381;28;20146;-68
2022/06/27 05:19:45;;;;;;;5.93;3.13;;;21.50;99.90;;;;;;4954466;28;20126;-69
2022/06/27 05:22:11;;;;;;;3.67;2.97;;;21.60;99.90;;;;;;4947613;28;20113;-69
2022/06/27 05:24:37;;;;;;;5.18;3.10;;;21.70;99.90;;;;;;4956498;28;20046;-70
2022/06/27 05:27:04;;;;;;;3.25;2.70;;;21.80;99.90;;;;;;4951539;28;20035;-70
2022/06/27 05:29:29;;;;;;;2.75;2.55;;;21.80;99.90;;;;;;4953410;28;20039;-69
2022/06/27 05:31:55;;;;;;;13.98;3.72;;;21.90;99.90;;;;;;4950287;28;20026;-70
2022/06/27 05:34:21;;;;;;;4.63;3.03;;;22.00;99.90;;;;;;4947334;28;20099;-71
2022/06/27 05:36:47;;;;;;;10.63;3.13;;;22.10;99.90;;;;;;4952955;28;20125;-70
2022/06/27 05:39:13;;;;;;;6.30;3.05;;;22.20;99.90;;;;;;4952788;28;20135;-71
2022/06/27 05:41:41;;;;;;;5.32;2.88;;;22.30;99.90;;;;;;4955996;28;20046;-70
2022/06/27 05:44:06;;;;;;;2.95;2.65;;;22.40;99.90;;;;;;4949552;28;20043;-69
2022/06/27 05:46:32;;;;;;;4.53;3.00;;;22.50;99.90;;;;;;4950816;28;20031;-72
2022/06/27 05:49:00;;;;;;;4.50;2.50;;;22.50;99.90;;;;;;4956054;28;20050;-71
2022/06/27 05:51:26;;;;;;;2.65;2.45;;;22.60;99.90;;;;;;4949683;28;20027;-71
2022/06/27 05:53:52;;;;;;;8.88;3.33;;;22.70;99.90;;;;;;4955604;28;20033;-71
2022/06/27 05:56:18;;;;;;;3.67;2.60;;;22.80;99.90;;;;;;4950456;28;20023;-70
2022/06/27 05:58:44;;;;;;;3.13;2.55;;;22.90;99.90;;;;;;4955193;28;20038;-70
2022/06/27 06:01:10;;;;;;;3.28;2.10;;;23.00;99.90;;;;;;4948003;28;20078;-70
2022/06/27 06:03:37;;;;;;;3.47;2.30;;;23.10;99.90;;;;;;4959814;28;20365;-70
2022/06/27 06:06:04;;;;;;;3.90;2.58;;;23.20;99.90;;;;;;4957337;28;20395;-70
2022/06/27 06:08:31;;;;;;;2.75;2.20;;;23.30;99.90;;;;;;4952686;28;20039;-70
2022/06/27 06:10:57;;;;;;;3.42;2.35;;;23.30;99.90;;;;;;4956454;28;20057;-70
2022/06/27 06:13:25;;;;;;;2.72;2.53;;;23.40;99.90;;;;;;4952945;28;20023;-70
2022/06/27 06:15:51;;;;;;;5.32;2.90;;;23.50;99.90;;;;;;4953920;28;20027;-70
2022/06/27 06:18:17;;;;;;;4.43;2.97;;;23.50;99.90;;;;;;4953088;28;20037;-71
2022/06/27 06:20:43;;;;;;;8.23;2.65;;;23.60;99.90;;;;;;4955581;28;20414;-71
2022/06/27 06:23:09;;;;;;;2.72;2.30;;;23.60;99.90;;;;;;4955837;28;20105;-71
2022/06/27 06:25:35;;;;;;;2.97;1.83;;;23.70;99.90;;;;;;4951627;28;20551;-71
2022/06/27 06:28:02;;;;;;;2.75;2.35;;;23.80;99.70;;;;;;4954750;28;20085;-70
2022/06/27 06:30:30;;;;;;;3.53;2.10;;;23.90;99.90;;;;;;4954255;28;20042;-71
2022/06/27 06:33:04;;;;;;;4.13;2.20;;;24.00;99.50;;;;;;4958179;28;20030;-70
2022/06/27 06:35:34;;;;;;;4.05;2.30;;;24.10;99.90;;;;;;4953156;28;21087;-69
2022/06/27 06:38:04;;;;;;;6.93;2.60;;;24.10;99.70;;;;;;4953980;28;20015;-69
2022/06/27 06:40:30;;;;;;;9.32;2.35;;;24.20;99.60;;;;;;4950597;28;20121;-70
2022/06/27 06:42:57;;;;;;;2.50;2.20;;;24.30;99.90;;;;;;4955991;28;20361;-70
2022/06/27 06:45:23;;;;;;;2.25;1.92;;;24.40;99.30;;;;;;4954212;28;20026;-70
2022/06/27 06:47:50;;;;;;;8.63;2.67;;;24.40;98.70;;;;;;4955298;28;20051;-72
2022/06/27 06:50:18;;;;;;;4.10;2.63;;;24.50;97.80;;;;;;4951322;28;20014;-70
2022/06/27 06:52:51;;;;;;;2.95;2.65;;;24.40;97.50;;;;;;4952698;28;20039;-70
2022/06/27 06:55:21;;;;;;;4.75;2.45;;;24.50;98.50;;;;;;4954080;28;20031;-72
2022/06/27 06:57:50;;;;;;;3.65;2.22;;;24.60;97.90;;;;;;4954564;28;20120;-71
2022/06/27 07:00:17;;;;;;;3.08;2.00;;;24.70;98.50;;;;;;4950068;28;20043;-72
2022/06/27 07:02:43;;;;;;;3.55;2.10;;;24.80;97.80;;;;;;4954490;28;20161;-71
2022/06/27 07:05:11;;;;;;;3.40;2.30;;;24.80;97.70;;;;;;4950725;28;20058;-71
2022/06/27 07:07:39;;;;;;;3.35;2.00;;;24.90;98.80;;;;;;4952601;28;20035;-70
2022/06/27 07:10:06;;;;;;;3.50;2.08;;;25.00;98.10;;;;;;4956187;28;20031;-71
2022/06/27 07:12:33;;;;;;;4.25;1.70;;;24.90;96.50;;;;;;4953248;28;20026;-70
2022/06/27 07:15:00;;;;;;;3.00;1.88;;;25.00;97.80;;;;;;4957306;28;20949;-70
2022/06/27 07:17:27;;;;;;;7.38;2.20;;;25.10;98.70;;;;;;4948910;28;20575;-72
2022/06/27 07:19:53;;;;;;;4.75;1.98;;;25.30;97.60;;;;;;4952180;28;20470;-70
2022/06/27 07:22:20;;;;;;;5.07;2.22;;;25.40;97.60;;;;;;4947036;28;20023;-70
2022/06/27 07:24:47;;;;;;;2.72;2.05;;;25.40;96.40;;;;;;4955639;28;20041;-75
2022/06/27 07:27:15;;;;;;;6.30;2.10;;;25.40;96.30;;;;;;4956138;28;20023;-69
2022/06/27 07:29:41;;;;;;;2.25;1.88;;;25.40;95.90;;;;;;4955561;28;20034;-70
2022/06/27 07:32:08;;;;;;;3.75;1.98;;;25.40;95.70;;;;;;4953103;28;20026;-70
2022/06/27 07:34:37;;;;;;;2.95;2.47;;;25.50;95.40;;;;;;4949360;28;20701;-70
2022/06/27 07:37:03;;;;;;;2.45;1.90;;;25.50;96.10;;;;;;4951130;28;20472;-70
2022/06/27 07:39:29;;;;;;;3.22;2.08;;;25.60;95.80;;;;;;4951164;28;20145;-70
2022/06/27 07:41:55;;;;;;;4.60;2.60;;;25.70;96.50;;;;;;4956175;28;20145;-69
2022/06/27 07:44:24;;;;;;;2.38;2.15;;;25.80;96.40;;;;;;4950798;28;20511;-69
2022/06/27 07:46:50;;;;;;;2.10;1.90;;;25.90;95.80;;;;;;4946102;28;20034;-70
2022/06/27 07:49:16;;;;;;;3.45;1.73;;;26.00;96.80;;;;;;4958222;28;20061;-73
2022/06/27 07:51:42;;;;;;;7.72;2.00;;;26.10;95.00;;;;;;4952893;28;20420;-70
2022/06/27 07:54:10;;;;;;;3.75;2.15;;;26.10;95.90;;;;;;4950693;28;21270;-70
2022/06/27 07:56:37;;;;;;;3.00;1.75;;;26.10;95.60;;;;;;4950376;28;20026;-69
2022/06/27 07:59:05;;;;;;;2.10;1.90;;;26.30;95.40;;;;;;4952832;28;20113;-70
2022/06/27 08:01:31;;;;;;;2.90;1.63;;;26.30;94.60;;;;;;4949831;28;20089;-70
2022/06/27 08:03:57;;;;;;;2.15;1.90;;;26.30;95.00;;;;;;4951858;28;20069;-69
2022/06/27 08:06:27;;;;;;;3.28;1.85;;;26.30;94.60;;;;;;4953680;28;20019;-71
2022/06/27 08:08:58;;;;;;;5.38;2.17;;;26.30;94.50;;;;;;4958229;28;20030;-70
2022/06/27 08:11:27;;;;;;;2.73;1.80;;;26.50;95.30;;;;;;4958583;28;20022;-71
2022/06/27 08:13:55;;;;;;;3.33;1.48;;;26.50;93.80;;;;;;4953360;28;20026;-71
2022/06/27 08:16:23;;;;;;;2.20;1.98;;;26.60;94.20;;;;;;4955138;28;20027;-72
2022/06/27 08:18:51;;;;;;;6.72;1.70;;;26.80;94.50;;;;;;4954730;28;20070;-71
2022/06/27 08:21:21;;;;;;;1.88;1.75;;;26.90;93.20;;;;;;4959934;28;20027;-71
2022/06/27 08:23:48;;;;;;;3.72;1.73;;;26.90;93.90;;;;;;4960823;28;20037;-70
2022/06/27 08:26:16;;;;;;;2.55;1.60;;;27.00;93.80;;;;;;4958532;28;20122;-70
2022/06/27 08:28:43;;;;;;;2.03;1.65;;;27.10;93.90;;;;;;4958585;28;20106;-71
2022/06/27 08:31:12;;;;;;;2.80;1.60;;;27.10;93.40;;;;;;4958741;28;20812;-71
2022/06/27 08:33:39;;;;;;;2.40;1.33;;;27.10;93.30;;;;;;4959310;28;20046;-72
2022/06/27 08:36:06;;;;;;;3.05;1.75;;;27.20;92.00;;;;;;4958609;28;20098;-72
2022/06/27 08:38:39;;;;;;;1.92;1.70;;;27.10;91.60;;;;;;4958895;28;20126;-71
2022/06/27 08:41:05;;;;;;;2.88;1.88;;;27.20;93.00;;;;;;4959366;28;20035;-72
2022/06/27 08:43:31;;;;;;;1.50;1.40;;;27.20;92.70;;;;;;4962183;28;20042;-72
2022/06/27 08:45:58;;;;;;;2.17;1.77;;;27.20;92.10;;;;;;4954753;28;20030;-72
2022/06/27 08:48:23;;;;;;;1.50;1.40;;;27.40;94.00;;;;;;4958042;28;20039;-72
2022/06/27 08:50:50;;;;;;;2.67;1.52;;;27.50;92.00;;;;;;4964005;28;20411;-71
2022/06/27 08:53:17;;;;;;;3.38;1.67;;;27.50;91.90;;;;;;4955040;28;20032;-72
2022/06/27 08:55:46;;;;;;;3.17;2.08;;;27.40;91.30;;;;;;4958359;28;20054;-72
2022/06/27 08:58:13;;;;;;;2.15;1.52;;;27.50;92.50;;;;;;4958187;28;20026;-72
2022/06/27 09:00:44;;;;;;;2.03;1.70;;;27.50;91.40;;;;;;4959488;28;20033;-72
2022/06/27 09:03:10;;;;;;;2.08;1.88;;;27.60;91.20;;;;;;4955983;28;20035;-73
2022/06/27 09:05:36;;;;;;;2.33;1.98;;;27.60;92.70;;;;;;4958993;28;20038;-73
2022/06/27 09:08:04;;;;;;;2.65;1.80;;;27.70;93.10;;;;;;4959276;28;20053;-72
2022/06/27 09:10:35;;;;;;;1.98;1.77;;;27.80;91.90;;;;;;4955089;28;20035;-72
2022/06/27 09:13:08;;;;;;;2.43;1.80;;;27.80;91.90;;;;;;4955116;28;20035;-72
2022/06/27 09:15:57;;;;;;;3.42;2.05;;;27.80;91.50;;;;;;4959792;28;20041;-73
2022/06/27 09:18:39;;;;;;;3.20;1.65;;;27.90;91.20;;;;;;4950614;28;20038;-69
2022/06/27 09:21:10;;;;;;;2.13;1.90;;;28.00;91.70;;;;;;4950592;28;20038;-71
2022/06/27 09:23:43;;;;;;;3.83;1.80;;;28.10;91.00;;;;;;4949284;28;20109;-69
2022/06/27 09:26:15;;;;;;;3.70;1.75;;;28.10;90.30;;;;;;4953737;28;20035;-73
2022/06/27 09:29:07;;;;;;;2.03;1.92;;;28.00;92.00;;;;;;4955943;28;20061;-73
2022/06/27 09:31:45;;;;;;;2.30;1.70;;;28.10;91.60;;;;;;4955742;28;20117;-73
2022/06/27 09:34:16;;;;;;;4.72;1.98;;;28.20;92.80;;;;;;4949981;28;20038;-74
2022/06/27 09:36:45;;;;;;;2.17;1.60;;;28.40;92.70;;;;;;4954471;28;20022;-72
2022/06/27 09:39:24;;;;;;;2.58;1.80;;;28.50;90.90;;;;;;4942953;28;20039;-73
2022/06/27 09:42:11;;;;;;;3.17;1.70;;;28.60;92.30;;;;;;4935386;28;20137;-72
2022/06/27 09:44:38;;;;;;;1.67;1.52;;;28.60;90.80;;;;;;4950778;28;20030;-73
2022/06/27 09:47:16;;;;;;;1.70;1.60;;;28.60;89.40;;;;;;4945679;28;20037;-71
2022/06/27 09:49:44;;;;;;;1.88;1.77;;;28.60;88.30;;;;;;4951319;28;20105;-71
2022/06/27 09:52:21;;;;;;;2.50;1.65;;;28.60;90.90;;;;;;4948818;28;20031;-71
2022/06/27 09:54:49;;;;;;;1.58;1.48;;;28.70;90.50;;;;;;4941814;28;20042;-70
2022/06/27 09:57:16;;;;;;;2.55;1.60;;;28.80;89.20;;;;;;4948224;28;20074;-69
2022/06/27 09:59:45;;;;;;;3.30;1.65;;;28.80;85.00;;;;;;4951716;28;20034;-69
2022/06/27 10:02:16;;;;;;;1.70;1.48;;;28.80;83.40;;;;;;4954558;28;20026;-72
2022/06/27 10:04:46;;;;;;;3.28;1.75;;;28.70;82.70;;;;;;4958017;28;20122;-72
2022/06/27 10:07:13;;;;;;;4.57;1.50;;;28.80;85.20;;;;;;4958637;28;20487;-73
2022/06/27 10:09:40;;;;;;;1.48;1.38;;;28.80;83.00;;;;;;4958619;28;20452;-73
2022/06/27 10:12:27;;;;;;;2.05;1.55;;;28.90;86.40;;;;;;4951893;28;20134;-72
2022/06/27 10:15:10;;;;;;;1.65;1.45;;;29.10;82.80;;;;;;4953827;28;20037;-73
2022/06/27 10:17:46;;;;;;;3.58;1.40;;;29.10;83.90;;;;;;4956507;28;20038;-72
2022/06/27 10:20:19;;;;;;;4.60;2.03;;;29.10;83.40;;;;;;4945464;28;20138;-73
2022/06/27 10:23:07;;;;;;;2.30;1.45;;;29.20;80.30;;;;;;4944651;28;20114;-73
2022/06/27 10:25:37;;;;;;;5.47;1.40;;;29.20;82.40;;;;;;4944624;28;20038;-73
2022/06/27 10:28:12;;;;;;;7.53;2.05;;;29.20;80.60;;;;;;4943509;28;20045;-70
2022/06/27 10:30:44;;;;;;;4.18;2.60;;;29.30;78.40;;;;;;4950966;28;20033;-66
2022/06/27 10:33:21;;;;;;;8.13;2.08;;;29.20;77.40;;;;;;4950255;28;20031;-66
2022/06/27 10:35:55;;;;;;;4.65;1.80;;;29.20;78.10;;;;;;4955342;28;20110;-64
2022/06/27 10:38:30;;;;;;;5.93;2.22;;;29.20;77.80;;;;;;4952681;28;20026;-63
2022/06/27 10:40:57;;;;;;;5.05;1.70;;;29.20;78.50;;;;;;4960865;28;20324;-67
2022/06/27 10:43:40;;;;;;;5.35;1.95;;;29.20;76.70;;;;;;4956569;28;20551;-70
2022/06/27 10:46:09;;;;;;;2.10;1.67;;;29.10;78.10;;;;;;4962727;28;20027;-70
2022/06/27 10:48:39;;;;;;;3.00;1.83;;;29.20;78.80;;;;;;4952935;28;20050;-69
2022/06/27 10:51:35;;;;;;;10.40;1.88;;;29.30;76.70;;;;;;4954750;28;20132;-73
2022/06/27 10:54:04;;;;;;;16.88;2.80;;;29.40;78.20;;;;;;4957134;28;20029;-71
2022/06/27 10:56:30;;;;;;;4.15;1.77;;;29.50;76.40;;;;;;4951813;28;20456;-68
2022/06/27 10:58:59;;;;;;;5.38;1.50;;;29.50;77.20;;;;;;4949684;28;20527;-71
2022/06/27 11:01:26;;;;;;;3.13;1.52;;;29.50;75.20;;;;;;4959292;28;20046;-65
2022/06/27 11:03:52;;;;;;;3.08;1.77;;;29.50;76.70;;;;;;4955554;28;20383;-68
2022/06/27 11:06:18;;;;;;;2.30;1.25;;;29.60;76.20;;;;;;4957690;28;20034;-68
2022/06/27 11:08:46;;;;;;;2.80;1.60;;;29.60;75.40;;;;;;4949251;28;20035;-67
2022/06/27 11:11:25;;;;;;;2.00;1.58;;;29.50;74.10;;;;;;4952497;28;20037;-66
2022/06/27 11:13:56;;;;;;;12.43;2.90;;;29.50;78.90;;;;;;4950990;28;20510;-65
2022/06/27 11:16:26;;;;;;;4.65;1.80;;;29.60;76.10;;;;;;4956751;28;20493;-64
2022/06/27 11:21:50;;;;;;;2.72;1.85;;;29.80;73.50;;;;;;4956888;28;20105;-72
2022/06/27 11:24:16;;;;;;;4.22;1.65;;;29.70;74.30;;;;;;4951927;28;20558;-77
2022/06/27 11:26:50;;;;;;;3.10;1.60;;;29.70;74.60;;;;;;4947043;28;20051;-74
2022/06/27 11:32:13;;;;;;;1.58;1.42;;;29.50;73.80;;;;;;4961207;28;20125;-71
2022/06/27 11:34:49;;;;;;;1.55;1.35;;;29.70;70.60;;;;;;4959719;28;20097;-71
2022/06/27 11:37:17;;;;;;;1.60;1.35;;;29.70;69.70;;;;;;4961412;28;20086;-73
2022/06/27 11:40:01;;;;;;;3.65;2.05;;;29.60;70.20;;;;;;4962058;28;20035;-67
2022/06/27 11:42:34;;;;;;;3.88;1.85;;;29.60;67.70;;;;;;4957949;28;20037;-68
2022/06/27 11:45:08;;;;;;;2.10;1.65;;;29.60;67.40;;;;;;4961182;28;20026;-66
2022/06/27 11:47:35;;;;;;;3.33;1.75;;;29.60;67.40;;;;;;4957726;28;20795;-66
2022/06/27 11:50:07;;;;;;;2.10;1.50;;;29.60;67.80;;;;;;4960368;28;20048;-67
2022/06/27 11:52:51;;;;;;;3.83;1.63;;;29.50;67.80;;;;;;4960424;28;20055;-67
2022/06/27 11:55:22;;;;;;;1.67;1.58;;;29.40;68.80;;;;;;4969245;28;20551;-66
2022/06/27 11:57:54;;;;;;;2.90;1.67;;;29.50;70.90;;;;;;4958637;28;20033;-66
2022/06/27 12:00:28;;;;;;;2.25;1.77;;;29.60;68.50;;;;;;4958541;28;20563;-72
2022/06/27 12:03:11;;;;;;;3.45;1.70;;;29.60;69.50;;;;;;4961360;28;20106;-71
2022/06/27 12:05:39;;;;;;;2.42;1.52;;;29.70;69.00;;;;;;4959517;28;20443;-69
2022/06/27 12:08:10;;;;;;;2.25;1.70;;;29.80;67.30;;;;;;4959668;28;20019;-68
2022/06/27 12:10:35;;;;;;;2.17;1.40;;;29.70;67.00;;;;;;4960189;28;20182;-70
2022/06/27 12:13:02;;;;;;;3.17;1.83;;;29.60;67.50;;;;;;4962017;28;20114;-71
2022/06/27 12:15:28;;;;;;;2.70;1.88;;;29.50;68.90;;;;;;4959181;28;20042;-70
2022/06/27 12:17:58;;;;;;;5.95;1.65;;;29.40;69.50;;;;;;4961311;28;20035;-70
2022/06/27 12:20:25;;;;;;;3.63;1.75;;;29.40;69.10;;;;;;4955579;28;20628;-71
2022/06/27 12:22:51;;;;;;;2.13;1.55;;;29.30;66.90;;;;;;4956043;28;20111;-70
2022/06/27 12:25:20;;;;;;;1.98;1.60;;;29.40;69.90;;;;;;4962052;28;20039;-74
2022/06/27 12:27:46;;;;;;;6.70;1.70;;;29.60;67.40;;;;;;4963009;28;20042;-73
2022/06/27 12:30:13;;;;;;;3.53;1.60;;;29.60;69.00;;;;;;4961189;28;20027;-71
2022/06/27 12:32:39;;;;;;;1.98;1.63;;;29.80;68.30;;;;;;4961511;28;20035;-73
2022/06/27 12:35:06;;;;;;;2.00;1.80;;;29.90;69.30;;;;;;4960293;28;20076;-72
2022/06/27 12:37:34;;;;;;;2.38;1.48;;;30.00;69.10;;;;;;4956660;28;20058;-72
2022/06/27 12:39:59;;;;;;;2.95;1.98;;;30.00;69.60;;;;;;4960384;28;20380;-71
2022/06/27 12:55:20;;;;;;;;;;;29.40;69.20;;;;;;5002928;28;20056;-70
2022/06/27 12:57:46;;;;;;;2.67;1.40;;;29.50;67.10;;;;;;4955583;28;19921;-66
2022/06/27 13:00:12;;;;;;;2.42;1.75;;;29.60;67.90;;;;;;4938786;28;20043;-67
2022/06/27 13:02:38;;;;;;;2.63;1.70;;;29.70;67.70;;;;;;4956637;28;20050;-67
2022/06/27 13:05:04;;;;;;;3.03;1.60;;;29.80;70.70;;;;;;4959906;28;20053;-68
2022/06/27 13:07:30;;;;;;;1.65;1.55;;;29.90;68.50;;;;;;4954502;28;20113;-66
2022/06/27 13:09:55;;;;;;;5.40;1.88;;;30.00;67.40;;;;;;4958803;28;20045;-67
2022/06/27 13:12:21;;;;;;;2.40;1.77;;;30.10;69.00;;;;;;4962442;28;20046;-69
2022/06/27 13:14:47;;;;;;;3.50;2.10;;;30.20;67.70;;;;;;4963637;28;20161;-68